createdAt,value
2022-10-11T00:04:12.670Z,0
2022-10-11T00:09:12.759Z,0
2022-10-11T00:14:12.734Z,0
2022-10-11T00:19:21.978Z,0
2022-10-11T00:24:13.056Z,0
2022-10-11T00:29:13.116Z,0
2022-10-11T00:34:13.004Z,0
2022-10-11T00:39:15.907Z,0
2022-10-11T00:44:12.785Z,0
2022-10-11T00:49:12.735Z,0
2022-10-11T00:54:12.687Z,0
2022-10-11T00:59:12.730Z,0
2022-10-11T01:04:12.805Z,0
2022-10-11T01:09:12.669Z,0
2022-10-11T01:14:12.705Z,0
2022-10-11T01:19:12.693Z,0
2022-10-11T01:24:12.736Z,0
2022-10-11T01:29:12.777Z,0
2022-10-11T01:34:12.707Z,0
2022-10-11T01:39:12.782Z,0
2022-10-11T01:44:12.710Z,0
2022-10-11T01:49:12.749Z,0
2022-10-11T01:54:12.800Z,0
2022-10-11T01:59:12.740Z,0
2022-10-11T02:04:12.692Z,0
2022-10-11T02:09:12.718Z,0
2022-10-11T02:14:12.766Z,0
2022-10-11T02:19:12.695Z,0
2022-10-11T02:24:12.705Z,0
2022-10-11T02:29:12.765Z,0
2022-10-11T02:34:12.751Z,0
2022-10-11T02:39:12.706Z,0
2022-10-11T02:44:12.702Z,0
2022-10-11T02:49:12.727Z,0
2022-10-11T02:54:12.748Z,0
2022-10-11T02:59:12.713Z,0
2022-10-11T03:04:12.716Z,0
2022-10-11T03:09:12.776Z,0
2022-10-11T03:14:12.743Z,0
2022-10-11T03:19:19.075Z,0
2022-10-11T03:24:12.716Z,0
2022-10-11T03:29:12.736Z,0
2022-10-11T03:34:12.777Z,0
2022-10-11T03:39:12.728Z,0
2022-10-11T03:44:12.747Z,0
2022-10-11T03:49:12.810Z,0
2022-10-11T03:54:12.721Z,0
2022-10-11T03:59:12.727Z,0
2022-10-11T04:04:12.795Z,0
2022-10-11T04:09:12.729Z,0
2022-10-11T04:14:12.754Z,0
2022-10-11T04:19:12.799Z,0
2022-10-11T04:24:12.775Z,0
2022-10-11T04:29:12.778Z,0
2022-10-11T04:34:12.782Z,0
2022-10-11T04:39:12.740Z,0
2022-10-11T04:44:12.811Z,0
2022-10-11T04:49:12.908Z,0
2022-10-11T04:54:12.764Z,0
2022-10-11T04:59:12.788Z,0
2022-10-11T05:04:12.828Z,0
2022-10-11T05:09:12.734Z,0
2022-10-11T05:14:12.847Z,0
2022-10-11T05:19:12.752Z,0
2022-10-11T05:24:12.723Z,0
2022-10-11T05:29:12.736Z,0
2022-10-11T05:34:12.782Z,0
2022-10-11T05:39:12.741Z,0
2022-10-11T05:44:12.757Z,0
2022-10-11T05:49:12.744Z,0
2022-10-11T05:54:12.791Z,0
2022-10-11T05:59:12.747Z,0
2022-10-11T06:04:12.752Z,0
2022-10-11T06:09:12.826Z,0
2022-10-11T06:14:12.792Z,0
2022-10-11T06:19:12.775Z,0
2022-10-11T06:24:12.785Z,0
2022-10-11T06:29:12.782Z,265
2022-10-11T06:34:12.783Z,268
2022-10-11T06:39:12.774Z,267
2022-10-11T06:44:15.752Z,267
2022-10-11T06:49:12.777Z,268
2022-10-11T06:54:12.745Z,267
2022-10-11T06:59:12.755Z,266
2022-10-11T07:04:12.781Z,268
2022-10-11T07:09:12.791Z,271
2022-10-11T07:14:12.758Z,275
2022-10-11T07:19:12.859Z,279
2022-10-11T07:24:12.818Z,277
2022-10-11T07:29:12.801Z,282
2022-10-11T07:34:12.786Z,281
2022-10-11T07:39:12.888Z,278
2022-10-11T07:44:12.804Z,281
2022-10-11T07:49:12.772Z,284
2022-10-11T07:54:12.813Z,302
2022-10-11T07:59:12.773Z,325
2022-10-11T08:04:12.804Z,321
2022-10-11T08:09:12.857Z,322
2022-10-11T08:14:12.771Z,319
2022-10-11T08:19:12.767Z,303
2022-10-11T08:24:13.641Z,301
2022-10-11T08:29:12.862Z,304
2022-10-11T08:34:12.794Z,337
2022-10-11T08:39:12.865Z,363
2022-10-11T08:44:12.854Z,405
2022-10-11T08:49:15.214Z,363
2022-10-11T08:54:12.806Z,376
2022-10-11T08:59:12.913Z,339
2022-10-11T09:04:12.808Z,538
2022-10-11T09:09:12.789Z,794
2022-10-11T09:14:12.849Z,398
2022-10-11T09:19:12.851Z,346
2022-10-11T09:24:12.839Z,329
2022-10-11T09:29:12.866Z,355
2022-10-11T09:34:12.830Z,359
2022-10-11T09:39:12.942Z,368
2022-10-11T09:44:12.846Z,356
2022-10-11T09:49:12.839Z,365
2022-10-11T09:54:12.864Z,325
2022-10-11T09:59:12.880Z,330
2022-10-11T10:04:13.001Z,383
2022-10-11T10:09:14.623Z,308
2022-10-11T10:14:12.852Z,293
2022-10-11T10:19:12.833Z,297
2022-10-11T10:24:12.907Z,292
2022-10-11T10:29:12.830Z,301
2022-10-11T10:34:12.847Z,315
2022-10-11T10:39:12.933Z,346
2022-10-11T10:44:12.873Z,363
2022-10-11T10:49:53.479Z,408
2022-10-11T10:54:12.857Z,428
2022-10-11T10:59:12.806Z,361
2022-10-11T11:04:12.828Z,408
2022-10-11T11:09:12.892Z,424
2022-10-11T11:14:16.613Z,385
2022-10-11T11:19:12.858Z,373
2022-10-11T11:24:12.813Z,354
2022-10-11T11:29:12.812Z,362
2022-10-11T11:34:12.811Z,333
2022-10-11T11:39:12.840Z,325
2022-10-11T11:44:13.118Z,306
2022-10-11T11:49:14.022Z,321
2022-10-11T11:54:12.872Z,328
2022-10-11T11:59:12.991Z,349
2022-10-11T12:04:23.648Z,354
2022-10-11T12:09:12.804Z,353
2022-10-11T12:14:12.816Z,359
2022-10-11T12:19:12.857Z,338
2022-10-11T12:24:12.928Z,334
2022-10-11T12:29:12.949Z,329
2022-10-11T12:34:12.822Z,336
2022-10-11T12:39:12.860Z,340
2022-10-11T12:44:12.807Z,333
2022-10-11T12:49:12.902Z,325
2022-10-11T12:54:26.483Z,334
2022-10-11T12:59:12.840Z,322
2022-10-11T13:14:12.869Z,336
2022-10-11T13:19:12.908Z,319
2022-10-11T13:24:12.872Z,296
2022-10-11T13:29:14.244Z,293
2022-10-11T13:34:12.861Z,290
2022-10-11T13:39:12.854Z,288
2022-10-11T13:44:12.851Z,288
2022-10-11T13:49:12.839Z,283
2022-10-11T13:54:15.903Z,288
2022-10-11T13:59:12.856Z,289
2022-10-11T14:04:14.047Z,281
2022-10-11T14:09:12.924Z,293
2022-10-11T14:14:12.958Z,302
2022-10-11T14:19:13.117Z,304
2022-10-11T14:29:13.141Z,298
2022-10-11T14:34:13.052Z,296
2022-10-11T14:39:12.949Z,290
2022-10-11T14:44:12.967Z,283
2022-10-11T14:49:12.974Z,282
2022-10-11T14:54:12.933Z,283
2022-10-11T14:59:12.884Z,286
2022-10-11T15:04:12.914Z,287
2022-10-11T15:09:12.995Z,283
2022-10-11T15:14:12.905Z,286
2022-10-11T15:19:12.920Z,279
2022-10-11T15:24:12.982Z,280
2022-10-11T15:29:12.867Z,279
2022-10-11T15:34:12.947Z,279
2022-10-11T15:39:12.981Z,277
2022-10-11T15:44:12.884Z,277
2022-10-11T15:49:12.947Z,273
2022-10-11T15:54:12.957Z,271
2022-10-11T15:59:12.895Z,269
2022-10-11T16:04:12.957Z,268
2022-10-11T16:09:12.889Z,265
2022-10-11T16:14:13.052Z,0
2022-10-11T16:19:13.041Z,0
2022-10-11T16:24:12.953Z,0
2022-10-11T16:29:12.967Z,0
2022-10-11T16:34:12.955Z,0
2022-10-11T16:39:12.951Z,0
2022-10-11T16:44:13.023Z,0
2022-10-11T16:49:13.088Z,0
2022-10-11T16:54:20.208Z,0
2022-10-11T16:59:13.166Z,0
2022-10-11T17:04:12.981Z,0
2022-10-11T17:09:13.042Z,0
2022-10-11T17:14:12.940Z,0
2022-10-11T17:19:13.033Z,0
2022-10-11T17:24:13.034Z,0
2022-10-11T17:29:12.939Z,0
2022-10-11T17:34:13.059Z,0
2022-10-11T17:39:13.029Z,0
2022-10-11T17:44:13.044Z,0
2022-10-11T17:49:13.111Z,0
2022-10-11T17:54:13.401Z,0
2022-10-11T17:59:13.052Z,0
2022-10-11T18:04:13.267Z,0
2022-10-11T18:09:13.118Z,0
2022-10-11T18:14:13.162Z,0
2022-10-11T18:19:13.032Z,0
2022-10-11T18:24:13.101Z,0
2022-10-11T18:29:13.125Z,0
2022-10-11T18:34:13.152Z,0
2022-10-11T18:39:13.065Z,0
2022-10-11T18:44:13.125Z,0
2022-10-11T18:49:13.154Z,0
2022-10-11T18:54:18.269Z,0
2022-10-11T18:59:13.013Z,0
2022-10-11T19:04:13.034Z,0
2022-10-11T19:09:13.212Z,0
2022-10-11T19:14:13.099Z,0
2022-10-11T19:19:13.067Z,0
2022-10-11T19:24:13.158Z,0
2022-10-11T19:29:13.132Z,0
2022-10-11T19:34:13.005Z,0
2022-10-11T19:39:13.237Z,0
2022-10-11T19:44:13.025Z,0
2022-10-11T19:49:13.008Z,0
2022-10-11T19:54:13.184Z,0
2022-10-11T19:59:13.128Z,0
2022-10-11T20:04:33.429Z,0
2022-10-11T20:09:28.875Z,0
2022-10-11T20:14:13.056Z,0
2022-10-11T20:19:13.029Z,0
2022-10-11T20:24:13.041Z,0
2022-10-11T20:29:13.039Z,0
2022-10-11T20:34:13.036Z,0
2022-10-11T20:39:13.012Z,0
2022-10-11T20:44:13.205Z,0
2022-10-11T20:49:12.994Z,0
2022-10-11T20:54:13.106Z,0
2022-10-11T20:59:12.971Z,0
2022-10-11T21:04:13.009Z,0
2022-10-11T21:09:16.627Z,0
2022-10-11T21:14:13.100Z,0
2022-10-11T21:19:13.093Z,0
2022-10-11T21:24:13.126Z,0
2022-10-11T21:29:13.006Z,0
2022-10-11T21:34:12.999Z,0
2022-10-11T21:39:12.946Z,0
2022-10-11T21:44:12.984Z,0
2022-10-11T21:49:12.991Z,0
2022-10-11T21:54:12.953Z,0
2022-10-11T21:59:13.980Z,0
2022-10-11T22:04:12.977Z,0
2022-10-11T22:09:12.967Z,0
2022-10-11T22:14:13.006Z,0
2022-10-11T22:19:12.940Z,0
2022-10-11T22:24:12.931Z,0
2022-10-11T22:29:12.995Z,0
2022-10-11T22:34:12.987Z,0
2022-10-11T22:39:12.961Z,0
2022-10-11T22:44:12.930Z,0
2022-10-11T22:49:12.990Z,0
2022-10-11T22:54:12.948Z,0
2022-10-11T22:59:12.955Z,0
2022-10-11T23:04:12.981Z,0
2022-10-11T23:09:12.947Z,0
2022-10-11T23:14:12.954Z,0
2022-10-11T23:19:12.914Z,0
2022-10-11T23:24:12.955Z,0
2022-10-11T23:29:13.020Z,0
2022-10-11T23:34:12.942Z,0
2022-10-11T23:39:12.984Z,0
2022-10-11T23:44:12.945Z,0
2022-10-11T23:49:12.946Z,0
2022-10-11T23:54:12.955Z,0
2022-10-11T23:59:12.967Z,0
